Time;durP1;ratioP1;P1;durP2;ratioP2;P2;SDS_P1;SDS_P2;PMS_P1;PMS_P2;Temp;Humidity;BMP_temperature;BMP_pressure;BME280_temperature;BME280_humidity;BME280_pressure;Samples;Min_cycle;Max_cycle;Signal;HPM_P1;HPM_P2
2021/12/08 00:01:39;;;;;;;34.13;19.92;;;1.80;99.90;;;;;;5075058;28;20235;-79
2021/12/08 00:04:06;;;;;;;35.72;19.00;;;1.70;99.90;;;;;;5073863;28;20280;-78
2021/12/08 00:06:32;;;;;;;33.83;19.15;;;1.80;99.90;;;;;;5072961;28;20272;-80
2021/12/08 00:09:16;;;;;;;32.42;18.33;;;1.80;99.90;;;;;;5074610;28;20193;-79
2021/12/08 00:14:28;;;;;;;39.72;22.15;;;1.80;99.90;;;;;;5075329;28;20196;-79
2021/12/08 00:16:55;;;;;;;35.63;19.60;;;1.80;99.90;;;;;;5075131;28;20221;-79
2021/12/08 00:19:22;;;;;;;31.63;17.60;;;1.70;99.90;;;;;;5075051;28;20189;-79
2021/12/08 00:21:48;;;;;;;40.53;21.52;;;1.60;99.90;;;;;;5071953;28;20193;-80
2021/12/08 00:24:15;;;;;;;32.13;21.02;;;1.60;99.90;;;;;;5075241;28;20727;-80
2021/12/08 00:26:42;;;;;;;29.90;18.38;;;2.10;99.90;;;;;;5075366;28;20219;-80
2021/12/08 00:29:08;;;;;;;36.17;20.08;;;1.70;99.90;;;;;;5075315;28;20239;-80
2021/12/08 00:31:36;;;;;;;37.80;19.42;;;1.60;99.90;;;;;;5074890;28;20217;-80
2021/12/08 00:34:03;;;;;;;35.60;19.45;;;1.50;99.90;;;;;;5074476;28;20217;-81
2021/12/08 00:36:40;;;;;;;39.78;19.60;;;1.40;99.90;;;;;;5074692;28;20213;-80
2021/12/08 00:39:07;;;;;;;35.05;19.65;;;1.40;99.90;;;;;;5074579;28;20705;-80
2021/12/08 00:41:34;;;;;;;36.25;18.50;;;1.40;99.90;;;;;;5073110;28;20695;-80
2021/12/08 00:44:00;;;;;;;33.00;19.23;;;1.60;99.90;;;;;;5074485;28;20683;-80
2021/12/08 00:46:27;;;;;;;34.85;18.60;;;1.40;99.90;;;;;;5074715;28;20615;-80
2021/12/08 00:48:55;;;;;;;34.28;18.77;;;1.40;99.90;;;;;;5073530;28;20538;-79
2021/12/08 00:51:21;;;;;;;32.58;18.92;;;1.50;99.90;;;;;;5073946;28;20292;-79
2021/12/08 00:53:49;;;;;;;36.30;19.92;;;1.50;99.90;;;;;;5074129;28;20276;-79
2021/12/08 00:56:16;;;;;;;34.92;19.02;;;1.50;99.90;;;;;;5074080;28;20268;-79
2021/12/08 00:58:43;;;;;;;37.30;19.85;;;1.60;99.90;;;;;;5071989;28;20708;-79
2021/12/08 01:01:10;;;;;;;38.95;18.95;;;1.60;99.90;;;;;;5073128;28;20272;-79
2021/12/08 01:03:37;;;;;;;34.47;20.10;;;1.60;99.90;;;;;;5073373;28;20297;-79
2021/12/08 01:06:06;;;;;;;34.83;19.83;;;1.70;99.90;;;;;;5073680;28;20221;-79
2021/12/08 01:08:34;;;;;;;38.35;21.65;;;1.70;99.90;;;;;;5073732;28;20182;-79
2021/12/08 01:11:06;;;;;;;35.30;19.00;;;1.60;99.90;;;;;;5073588;28;20304;-79
2021/12/08 01:13:32;;;;;;;36.25;18.95;;;1.60;99.90;;;;;;5073512;28;20260;-79
2021/12/08 01:16:00;;;;;;;34.63;20.48;;;1.60;99.90;;;;;;5073405;28;20272;-79
2021/12/08 01:18:28;;;;;;;38.38;19.83;;;1.60;99.90;;;;;;5069229;28;20211;-79
2021/12/08 01:20:58;;;;;;;32.20;18.73;;;1.60;99.90;;;;;;5073514;28;20268;-79
2021/12/08 01:23:26;;;;;;;33.80;19.05;;;1.60;99.90;;;;;;5073095;28;20318;-79
2021/12/08 01:25:54;;;;;;;32.75;17.30;;;1.50;99.90;;;;;;5073310;28;20280;-79
2021/12/08 01:28:23;;;;;;;30.73;18.20;;;1.60;99.90;;;;;;5073164;28;20268;-80
2021/12/08 01:30:50;;;;;;;31.48;18.58;;;1.60;99.90;;;;;;5073366;28;20209;-80
2021/12/08 01:33:18;;;;;;;38.53;21.52;;;1.60;99.90;;;;;;5073089;28;20702;-80
2021/12/08 01:35:45;;;;;;;35.40;19.88;;;1.80;99.90;;;;;;5073331;28;20220;-80
2021/12/08 01:38:12;;;;;;;33.38;18.35;;;1.60;99.90;;;;;;5071273;28;20251;-80
2021/12/08 01:40:40;;;;;;;35.13;19.10;;;1.60;99.90;;;;;;5073077;28;20276;-79
2021/12/08 01:43:12;;;;;;;37.38;18.48;;;1.60;99.90;;;;;;5072875;28;20732;-79
2021/12/08 01:45:58;;;;;;;34.65;19.55;;;1.50;99.90;;;;;;5072866;28;20199;-79
2021/12/08 01:48:25;;;;;;;32.42;19.52;;;1.60;99.90;;;;;;5072966;28;20185;-80
2021/12/08 01:50:56;;;;;;;31.63;19.83;;;1.60;99.90;;;;;;5072861;28;20209;-79
2021/12/08 01:53:23;;;;;;;39.78;20.00;;;1.70;99.90;;;;;;5072700;28;20266;-80
2021/12/08 01:55:51;;;;;;;32.15;19.35;;;1.70;99.90;;;;;;5073245;28;20242;-80
2021/12/08 01:58:19;;;;;;;32.42;19.25;;;1.70;99.90;;;;;;5072896;28;20213;-80
2021/12/08 02:00:49;;;;;;;39.17;21.05;;;1.70;99.90;;;;;;5072060;28;20190;-79
2021/12/08 02:03:16;;;;;;;34.97;18.40;;;1.60;99.90;;;;;;5072572;28;20185;-80
2021/12/08 02:05:43;;;;;;;35.30;19.98;;;1.90;99.90;;;;;;5072569;28;20189;-81
2021/12/08 02:08:10;;;;;;;33.35;19.40;;;1.70;99.90;;;;;;5072588;28;20221;-80
2021/12/08 02:10:38;;;;;;;34.88;19.27;;;1.70;99.90;;;;;;5072395;28;20752;-81
2021/12/08 02:13:06;;;;;;;29.25;18.02;;;1.70;99.90;;;;;;5072671;28;20194;-80
2021/12/08 02:15:35;;;;;;;33.15;19.05;;;1.90;99.90;;;;;;5072498;28;20185;-80
2021/12/08 02:18:01;;;;;;;39.00;19.58;;;1.60;99.90;;;;;;5072402;28;20199;-81
2021/12/08 02:20:29;;;;;;;32.28;18.30;;;2.10;99.90;;;;;;5072396;28;20268;-79
2021/12/08 02:22:57;;;;;;;32.90;18.33;;;1.50;99.90;;;;;;5072309;28;20593;-79
2021/12/08 02:25:26;;;;;;;39.40;19.65;;;1.50;99.90;;;;;;5072228;28;20280;-79
2021/12/08 02:27:54;;;;;;;32.20;17.55;;;1.40;99.90;;;;;;5073031;28;20276;-80
2021/12/08 02:30:28;;;;;;;32.65;18.35;;;1.40;99.90;;;;;;5072125;28;20259;-79
2021/12/08 02:47:03;;;;;;;29.45;16.10;;;1.40;99.90;;;;;;5059887;28;20702;-80
2021/12/08 02:49:31;;;;;;;32.10;18.63;;;1.30;99.90;;;;;;5071752;28;20185;-80
2021/12/08 02:51:59;;;;;;;27.13;16.90;;;1.20;99.90;;;;;;5072171;28;20254;-80
2021/12/08 02:54:34;;;;;;;29.75;17.02;;;1.30;99.90;;;;;;5057653;28;20212;-79
2021/12/08 02:57:01;;;;;;;32.00;17.70;;;1.30;99.90;;;;;;5072208;28;20570;-80
2021/12/08 02:59:28;;;;;;;27.92;16.30;;;1.30;99.90;;;;;;5071875;28;20272;-79
2021/12/08 03:01:55;;;;;;;28.58;16.38;;;1.30;99.90;;;;;;5071853;28;20185;-79
2021/12/08 03:04:21;;;;;;;29.20;16.08;;;1.50;99.90;;;;;;5071723;28;20268;-79
2021/12/08 03:06:48;;;;;;;32.33;19.02;;;1.40;99.90;;;;;;5072313;28;20231;-80
2021/12/08 03:09:15;;;;;;;28.30;17.00;;;1.30;99.90;;;;;;5072521;28;20277;-79
2021/12/08 03:11:42;;;;;;;33.03;18.45;;;1.30;99.90;;;;;;5072111;28;20741;-80
2021/12/08 03:14:12;;;;;;;34.75;18.35;;;2.00;99.90;;;;;;5076228;28;20220;-80
2021/12/08 03:16:41;;;;;;;28.63;17.13;;;1.40;99.90;;;;;;5075747;28;20208;-80
2021/12/08 03:19:09;;;;;;;29.63;16.75;;;1.40;99.90;;;;;;5075881;28;20658;-79
2021/12/08 03:21:35;;;;;;;32.53;17.52;;;1.30;99.90;;;;;;5075573;28;20239;-79
2021/12/08 03:24:12;;;;;;;30.70;18.50;;;1.40;99.90;;;;;;5075819;28;20228;-79
2021/12/08 03:26:47;;;;;;;33.15;18.30;;;1.30;99.90;;;;;;5075692;28;20191;-80
2021/12/08 03:29:24;;;;;;;37.20;20.33;;;1.40;99.90;;;;;;5075204;28;20220;-79
2021/12/08 03:31:54;;;;;;;32.97;19.65;;;1.40;99.90;;;;;;5075721;28;20271;-79
2021/12/08 03:34:23;;;;;;;29.30;17.67;;;1.40;99.90;;;;;;5075659;28;20521;-79
2021/12/08 03:36:51;;;;;;;33.88;19.02;;;1.70;99.90;;;;;;5075727;28;20250;-80
2021/12/08 03:39:20;;;;;;;32.95;17.23;;;1.40;99.90;;;;;;5075137;28;20213;-80
2021/12/08 03:41:47;;;;;;;28.60;17.58;;;1.50;99.90;;;;;;5075045;28;20625;-80
2021/12/08 03:44:15;;;;;;;28.70;17.65;;;1.40;99.90;;;;;;5075407;28;20181;-80
2021/12/08 03:46:42;;;;;;;32.05;18.45;;;1.40;99.90;;;;;;5075450;28;20368;-80
2021/12/08 03:49:12;;;;;;;31.40;18.55;;;1.40;99.90;;;;;;5075399;28;20192;-79
2021/12/08 03:51:40;;;;;;;31.95;19.05;;;1.40;99.90;;;;;;5074911;28;20232;-78
2021/12/08 03:54:07;;;;;;;35.00;20.65;;;1.40;99.90;;;;;;5074973;28;20280;-79
2021/12/08 03:56:34;;;;;;;32.63;21.27;;;1.40;99.90;;;;;;5075007;28;20691;-78
2021/12/08 03:59:01;;;;;;;31.75;18.38;;;1.40;99.90;;;;;;5075249;28;20217;-79
2021/12/08 04:01:29;;;;;;;32.75;18.85;;;1.40;99.90;;;;;;5074687;28;20217;-79
2021/12/08 04:04:01;;;;;;;36.00;19.48;;;1.40;99.90;;;;;;5074997;28;20221;-78
2021/12/08 04:06:31;;;;;;;36.30;18.08;;;1.40;99.90;;;;;;5060627;28;20184;-78
2021/12/08 04:09:01;;;;;;;29.60;18.95;;;1.50;99.90;;;;;;5074717;28;20188;-78
2021/12/08 04:11:28;;;;;;;32.40;18.20;;;1.40;99.90;;;;;;5074540;28;20224;-79
2021/12/08 04:13:58;;;;;;;38.20;19.58;;;1.50;99.90;;;;;;5074839;28;20216;-78
2021/12/08 04:16:28;;;;;;;36.70;20.67;;;1.40;99.90;;;;;;5074626;28;20213;-79
2021/12/08 04:18:57;;;;;;;35.78;19.60;;;1.50;99.90;;;;;;5074693;28;20220;-79
2021/12/08 04:21:24;;;;;;;33.67;18.25;;;1.40;99.90;;;;;;5074138;28;20186;-79
2021/12/08 04:23:52;;;;;;;31.58;18.13;;;1.40;99.90;;;;;;5073858;28;20595;-79
2021/12/08 04:26:22;;;;;;;32.70;18.30;;;1.40;99.90;;;;;;5074614;28;20272;-79
2021/12/08 04:28:49;;;;;;;35.53;20.00;;;1.40;99.90;;;;;;5074513;28;20280;-80
2021/12/08 04:31:18;;;;;;;30.75;19.50;;;1.40;99.90;;;;;;5074255;28;20632;-80
2021/12/08 04:33:46;;;;;;;35.30;19.55;;;1.50;99.90;;;;;;5074153;28;20193;-80
2021/12/08 04:36:16;;;;;;;34.50;19.73;;;1.50;99.90;;;;;;5072692;28;20276;-79
2021/12/08 04:38:45;;;;;;;35.50;20.50;;;1.50;99.90;;;;;;5074256;28;20600;-79
2021/12/08 04:41:18;;;;;;;29.90;18.48;;;1.60;99.90;;;;;;5074224;28;20200;-79
2021/12/08 04:43:53;;;;;;;28.63;16.38;;;1.50;99.90;;;;;;5074161;28;20186;-79
2021/12/08 04:46:33;;;;;;;30.25;17.27;;;1.50;99.90;;;;;;5073268;28;20599;-79
2021/12/08 04:49:23;;;;;;;30.52;17.65;;;1.60;99.90;;;;;;5074345;28;20672;-79
2021/12/08 04:52:02;;;;;;;33.92;18.30;;;1.50;99.90;;;;;;5073892;28;20224;-79
2021/12/08 05:00:28;;;;;;;34.25;19.00;;;1.50;99.90;;;;;;5073691;28;20196;-80
2021/12/08 05:03:20;;;;;;;27.50;17.60;;;1.50;99.90;;;;;;5073277;28;20556;-81
2021/12/08 05:06:04;;;;;;;28.33;17.02;;;1.50;99.90;;;;;;5073825;28;20213;-81
2021/12/08 05:08:41;;;;;;;34.47;18.35;;;1.60;99.90;;;;;;5060081;28;20227;-80
2021/12/08 05:11:11;;;;;;;30.33;18.50;;;1.60;99.90;;;;;;5073565;28;20300;-81
2021/12/08 05:13:38;;;;;;;31.40;19.27;;;1.50;99.90;;;;;;5073624;28;20193;-82
2021/12/08 05:16:06;;;;;;;32.78;17.98;;;1.50;99.90;;;;;;5073390;28;20220;-79
2021/12/08 05:18:35;;;;;;;30.42;18.52;;;1.60;99.90;;;;;;5073636;28;20648;-79
2021/12/08 05:21:09;;;;;;;30.38;18.65;;;1.60;99.90;;;;;;5073464;28;20225;-79
2021/12/08 05:23:41;;;;;;;28.73;17.55;;;1.60;99.90;;;;;;5068260;28;20193;-80
2021/12/08 05:26:13;;;;;;;30.13;17.88;;;1.60;99.90;;;;;;5073092;28;20207;-79
2021/12/08 05:28:42;;;;;;;25.23;17.15;;;1.60;99.90;;;;;;5073445;28;20189;-79
2021/12/08 05:31:12;;;;;;;28.45;16.80;;;1.50;99.90;;;;;;5073222;28;20243;-79
2021/12/08 05:33:41;;;;;;;30.15;17.85;;;1.60;99.90;;;;;;5073218;28;20264;-80
2021/12/08 05:36:09;;;;;;;31.95;17.75;;;1.50;99.90;;;;;;5070394;28;20813;-80
2021/12/08 05:38:38;;;;;;;33.75;18.63;;;1.60;99.90;;;;;;5072211;28;20304;-80
2021/12/08 05:41:09;;;;;;;30.92;17.85;;;1.30;99.90;;;;;;5072838;28;20213;-80
2021/12/08 05:43:36;;;;;;;29.70;18.30;;;1.20;99.90;;;;;;5071776;28;21079;-80
2021/12/08 05:46:04;;;;;;;30.08;18.95;;;1.10;99.90;;;;;;5072194;28;20282;-80
2021/12/08 05:48:33;;;;;;;28.73;18.30;;;1.00;99.90;;;;;;5072207;28;20235;-81
2021/12/08 05:51:03;;;;;;;30.83;18.23;;;0.90;99.90;;;;;;5072502;28;20189;-81
2021/12/08 05:53:32;;;;;;;32.85;17.85;;;0.90;99.90;;;;;;5072668;28;20220;-81
2021/12/08 05:56:00;;;;;;;31.77;18.77;;;1.80;99.90;;;;;;5072635;28;20220;-81
2021/12/08 05:58:28;;;;;;;32.75;17.83;;;0.80;99.90;;;;;;5057979;28;20707;-81
2021/12/08 06:00:59;;;;;;;34.13;18.00;;;0.90;99.90;;;;;;5072699;28;20276;-80
2021/12/08 06:03:26;;;;;;;32.80;19.02;;;0.80;99.90;;;;;;5072294;28;20281;-80
2021/12/08 06:05:55;;;;;;;33.17;17.33;;;1.00;99.90;;;;;;5072612;28;20276;-80
2021/12/08 06:08:22;;;;;;;32.38;19.33;;;0.80;99.90;;;;;;5072198;28;20216;-80
2021/12/08 06:10:49;;;;;;;31.33;17.85;;;0.80;99.90;;;;;;5072395;28;20280;-80
2021/12/08 06:13:18;;;;;;;35.72;18.73;;;0.90;99.90;;;;;;5072040;28;20303;-80
2021/12/08 06:15:47;;;;;;;37.60;19.17;;;0.80;99.90;;;;;;5072286;28;20225;-80
2021/12/08 06:18:14;;;;;;;35.13;18.77;;;0.30;99.90;;;;;;5070628;28;20569;-82
2021/12/08 06:20:42;;;;;;;30.38;16.67;;;0.70;99.90;;;;;;5072974;28;20186;-82
2021/12/08 06:23:10;;;;;;;31.80;18.80;;;0.70;99.90;;;;;;5072516;28;20284;-79
2021/12/08 06:25:38;;;;;;;34.00;18.83;;;0.60;99.90;;;;;;5072422;28;20220;-79
2021/12/08 06:28:07;;;;;;;32.35;18.42;;;0.60;99.90;;;;;;5071782;28;20189;-80
2021/12/08 06:30:37;;;;;;;33.15;19.27;;;0.60;99.90;;;;;;5072122;28;20192;-80
2021/12/08 06:33:05;;;;;;;38.00;18.48;;;0.60;99.90;;;;;;5072207;28;20267;-79
2021/12/08 06:35:35;;;;;;;38.08;18.55;;;0.70;99.90;;;;;;5072300;28;20270;-80
2021/12/08 06:38:03;;;;;;;30.33;18.60;;;0.60;99.90;;;;;;5072091;28;20311;-79
2021/12/08 06:40:33;;;;;;;41.70;17.77;;;0.60;99.90;;;;;;5072123;28;20280;-80
2021/12/08 06:43:03;;;;;;;40.38;20.75;;;0.60;99.90;;;;;;5071900;28;20274;-80
2021/12/08 06:45:36;;;;;;;36.95;20.10;;;0.60;99.90;;;;;;5072065;28;20591;-81
2021/12/08 06:48:08;;;;;;;32.60;18.38;;;0.60;99.90;;;;;;5071653;28;20279;-79
2021/12/08 06:50:39;;;;;;;31.15;18.45;;;0.60;99.90;;;;;;5072137;28;20276;-79
2021/12/08 06:53:07;;;;;;;41.67;18.85;;;0.60;99.90;;;;;;5067792;28;20243;-79
2021/12/08 06:55:37;;;;;;;33.80;18.20;;;0.60;99.90;;;;;;5068320;28;20220;-79
2021/12/08 06:58:07;;;;;;;33.25;18.25;;;0.70;99.90;;;;;;5071905;28;20227;-79
2021/12/08 07:00:49;;;;;;;35.58;18.05;;;0.70;99.90;;;;;;5071949;28;20292;-79
2021/12/08 07:03:34;;;;;;;40.35;20.60;;;0.80;99.90;;;;;;5072010;28;20193;-79
2021/12/08 07:06:10;;;;;;;35.90;19.30;;;0.80;99.90;;;;;;5071803;28;20197;-79
2021/12/08 07:08:42;;;;;;;38.17;22.50;;;0.80;99.90;;;;;;5071613;28;20554;-79
2021/12/08 07:11:09;;;;;;;33.63;17.85;;;0.90;99.90;;;;;;5071744;28;20619;-79
2021/12/08 07:13:36;;;;;;;40.85;21.58;;;0.90;99.90;;;;;;5071488;28;20220;-79
2021/12/08 07:16:07;;;;;;;36.65;19.70;;;0.90;99.90;;;;;;5070904;28;20185;-79
2021/12/08 07:18:41;;;;;;;38.85;20.48;;;1.00;99.90;;;;;;5069956;28;20260;-80
2021/12/08 07:21:12;;;;;;;41.15;19.48;;;1.00;99.90;;;;;;5072124;28;20209;-78
2021/12/08 07:23:43;;;;;;;42.83;20.42;;;1.00;99.90;;;;;;5071272;28;20193;-78
2021/12/08 07:26:12;;;;;;;37.15;18.20;;;1.00;99.90;;;;;;5071446;28;20186;-78
2021/12/08 07:28:40;;;;;;;35.90;18.10;;;1.00;99.90;;;;;;5071125;28;20209;-79
2021/12/08 07:31:10;;;;;;;34.30;18.95;;;1.10;99.90;;;;;;5071886;28;20189;-78
2021/12/08 07:33:38;;;;;;;38.15;19.40;;;1.10;99.90;;;;;;5071222;28;20316;-77
2021/12/08 07:36:09;;;;;;;37.53;19.63;;;1.20;99.90;;;;;;5071573;28;20186;-78
2021/12/08 07:38:37;;;;;;;36.88;18.45;;;1.10;99.90;;;;;;5070654;28;20611;-78
2021/12/08 07:41:09;;;;;;;41.35;19.90;;;1.20;99.90;;;;;;5070946;28;20189;-78
2021/12/08 07:43:40;;;;;;;38.40;19.33;;;0.70;99.90;;;;;;5071402;28;20568;-78
2021/12/08 07:46:10;;;;;;;44.95;20.92;;;1.20;99.90;;;;;;5071324;28;20235;-79
2021/12/08 07:48:52;;;;;;;39.67;19.73;;;1.20;99.90;;;;;;5071786;28;20268;-78
2021/12/08 07:51:22;;;;;;;41.80;19.73;;;1.30;99.90;;;;;;5071537;28;20217;-79
2021/12/08 07:53:49;;;;;;;41.22;20.60;;;1.30;99.90;;;;;;5071332;28;20248;-79
2021/12/08 07:56:18;;;;;;;37.20;18.20;;;1.40;99.90;;;;;;5071318;28;20213;-78
2021/12/08 07:58:48;;;;;;;45.38;21.63;;;1.40;99.90;;;;;;5071989;28;20277;-78
2021/12/08 08:01:19;;;;;;;48.25;22.83;;;1.50;99.90;;;;;;5075126;28;20189;-78
2021/12/08 08:03:47;;;;;;;41.45;21.15;;;1.60;99.90;;;;;;5074919;28;20197;-79
2021/12/08 08:06:19;;;;;;;43.45;21.60;;;1.60;99.90;;;;;;5073257;28;20273;-79
2021/12/08 08:08:46;;;;;;;37.90;21.17;;;1.70;99.90;;;;;;5074951;28;20224;-79
2021/12/08 08:11:20;;;;;;;42.67;22.13;;;1.70;99.90;;;;;;5074568;28;20216;-79
2021/12/08 08:13:47;;;;;;;42.08;21.95;;;1.70;99.90;;;;;;5074715;28;20209;-79
2021/12/08 08:16:17;;;;;;;38.28;20.77;;;1.70;99.90;;;;;;5074323;28;20216;-77
2021/12/08 08:18:51;;;;;;;48.22;22.15;;;1.80;99.90;;;;;;5074618;28;20173;-78
2021/12/08 08:21:21;;;;;;;44.40;20.45;;;1.90;99.90;;;;;;5074810;28;20181;-78
2021/12/08 08:23:49;;;;;;;45.58;20.70;;;1.90;99.90;;;;;;5074879;28;20178;-78
2021/12/08 08:26:17;;;;;;;43.85;21.08;;;2.00;99.90;;;;;;5074399;28;20224;-78
2021/12/08 08:28:49;;;;;;;45.17;21.30;;;2.00;99.90;;;;;;5074570;28;20552;-78
2021/12/08 08:31:20;;;;;;;57.80;23.80;;;1.90;99.90;;;;;;5074570;28;20185;-79
2021/12/08 08:33:49;;;;;;;50.17;22.27;;;2.00;99.90;;;;;;5074155;28;20224;-78
2021/12/08 08:36:19;;;;;;;39.80;21.95;;;2.10;99.90;;;;;;5074306;28;20755;-78
2021/12/08 08:38:54;;;;;;;42.60;21.63;;;2.10;99.90;;;;;;5074493;28;20300;-78
2021/12/08 08:41:24;;;;;;;40.20;20.00;;;2.20;99.90;;;;;;5074253;28;20207;-78
2021/12/08 08:43:52;;;;;;;46.35;21.13;;;2.20;99.90;;;;;;5073869;28;20247;-78
2021/12/08 08:46:24;;;;;;;39.78;19.83;;;2.20;99.90;;;;;;5074417;28;20272;-77
2021/12/08 08:48:57;;;;;;;41.70;20.88;;;2.10;99.90;;;;;;5073985;28;20196;-78
2021/12/08 08:51:28;;;;;;;48.13;20.63;;;2.10;99.90;;;;;;5074195;28;20181;-77
2021/12/08 08:53:57;;;;;;;41.03;19.92;;;2.10;99.90;;;;;;5073679;28;20214;-77
2021/12/08 08:56:29;;;;;;;44.70;19.58;;;2.30;99.90;;;;;;5072699;28;20635;-78
2021/12/08 08:58:59;;;;;;;35.15;20.77;;;2.30;99.90;;;;;;5072838;28;20201;-85
2021/12/08 09:01:28;;;;;;;48.10;22.30;;;2.30;99.90;;;;;;5074256;28;20864;-86
2021/12/08 09:04:02;;;;;;;41.13;20.75;;;2.30;99.90;;;;;;5074578;28;20655;-86
2021/12/08 09:06:31;;;;;;;41.70;21.00;;;2.30;99.90;;;;;;5060205;28;20232;-86
2021/12/08 09:09:02;;;;;;;47.72;22.95;;;2.30;99.90;;;;;;5073601;28;20534;-86
2021/12/08 09:11:32;;;;;;;40.67;20.25;;;2.30;99.90;;;;;;5073338;28;20193;-86
2021/12/08 09:14:02;;;;;;;35.88;19.38;;;2.30;99.90;;;;;;5073525;28;20343;-86
2021/12/08 09:16:32;;;;;;;32.55;18.30;;;2.30;99.90;;;;;;5059448;28;20181;-86
2021/12/08 09:19:06;;;;;;;35.85;19.40;;;2.30;99.90;;;;;;5073675;28;20220;-86
2021/12/08 09:21:38;;;;;;;43.70;22.85;;;2.30;99.90;;;;;;5073495;28;20188;-86
2021/12/08 09:24:09;;;;;;;38.78;19.95;;;2.40;99.90;;;;;;5073561;28;20193;-86
2021/12/08 09:26:39;;;;;;;41.45;18.60;;;2.40;99.90;;;;;;5073574;28;20679;-86
2021/12/08 09:29:10;;;;;;;39.88;21.15;;;2.40;99.90;;;;;;5073287;28;20201;-86
2021/12/08 09:31:39;;;;;;;40.13;21.05;;;2.50;99.90;;;;;;5072938;28;20193;-86
2021/12/08 09:34:12;;;;;;;36.80;20.55;;;2.50;99.90;;;;;;5072956;28;20221;-87
2021/12/08 09:36:46;;;;;;;42.55;22.20;;;2.50;99.90;;;;;;5060605;28;20234;-87
2021/12/08 09:39:17;;;;;;;40.30;18.83;;;2.50;99.90;;;;;;5073046;28;20213;-87
2021/12/08 09:41:48;;;;;;;40.20;20.33;;;2.50;99.90;;;;;;5072996;28;20181;-87
2021/12/08 09:44:17;;;;;;;41.13;20.77;;;2.50;99.90;;;;;;5071625;28;20181;-87
2021/12/08 09:46:47;;;;;;;47.55;21.45;;;2.50;99.90;;;;;;5072867;28;20193;-87
2021/12/08 09:49:19;;;;;;;35.03;19.25;;;2.50;99.90;;;;;;5072993;28;20181;-87
2021/12/08 09:51:47;;;;;;;34.55;19.17;;;2.60;99.90;;;;;;5072847;28;20219;-87
2021/12/08 09:54:14;;;;;;;41.50;21.38;;;2.30;99.90;;;;;;5072583;28;20232;-87
2021/12/08 09:56:40;;;;;;;42.75;20.27;;;2.70;99.90;;;;;;5072781;28;20185;-87
2021/12/08 09:59:09;;;;;;;34.47;19.13;;;2.80;99.90;;;;;;5072312;28;20186;-88
2021/12/08 10:01:39;;;;;;;42.75;22.20;;;2.80;99.90;;;;;;5072653;28;20185;-87
2021/12/08 10:04:06;;;;;;;44.10;19.98;;;2.80;99.90;;;;;;5072584;28;20197;-88
2021/12/08 10:06:36;;;;;;;42.70;23.55;;;2.90;99.90;;;;;;5072726;28;20182;-87
2021/12/08 10:09:04;;;;;;;43.55;20.95;;;2.90;99.90;;;;;;5072805;28;20216;-86
2021/12/08 10:11:32;;;;;;;42.70;21.60;;;3.10;99.90;;;;;;5072538;28;20181;-88
2021/12/08 10:14:00;;;;;;;48.08;21.65;;;3.00;99.90;;;;;;5072188;28;20746;-87
2021/12/08 10:16:27;;;;;;;38.70;20.00;;;3.00;99.90;;;;;;5059064;28;20268;-87
2021/12/08 10:18:55;;;;;;;40.90;20.60;;;3.00;99.90;;;;;;5072781;28;20219;-88
2021/12/08 10:21:31;;;;;;;41.78;21.20;;;3.10;99.90;;;;;;5068909;28;20687;-88
2021/12/08 10:23:59;;;;;;;43.80;21.67;;;3.20;99.90;;;;;;5072674;28;20192;-87
2021/12/08 10:26:25;;;;;;;36.70;19.67;;;3.40;99.90;;;;;;5070273;28;20220;-88
2021/12/08 10:28:54;;;;;;;41.72;21.25;;;3.40;99.90;;;;;;5071927;28;20652;-87
2021/12/08 10:31:26;;;;;;;34.78;20.58;;;3.50;99.90;;;;;;5069936;28;20189;-87
2021/12/08 10:34:00;;;;;;;37.10;19.23;;;3.50;99.90;;;;;;5072726;28;20749;-87
2021/12/08 10:36:44;;;;;;;40.38;20.02;;;3.60;99.90;;;;;;5071688;28;20300;-87
2021/12/08 10:39:15;;;;;;;40.15;20.70;;;3.60;99.90;;;;;;5072384;28;20228;-86
2021/12/08 10:41:52;;;;;;;38.55;20.60;;;3.50;99.90;;;;;;5072909;28;20189;-86
2021/12/08 10:44:25;;;;;;;39.72;20.27;;;3.50;99.90;;;;;;5071812;28;20181;-87
2021/12/08 10:46:57;;;;;;;34.72;19.77;;;3.50;99.90;;;;;;5072380;28;20613;-87
2021/12/08 10:54:23;;;;;;;39.05;19.73;;;3.60;99.90;;;;;;5072625;28;20200;-87
2021/12/08 10:54:59;;;;;;;42.13;21.10;;;3.70;99.90;;;;;;5072578;28;20212;-87
2021/12/08 10:57:33;;;;;;;35.80;19.48;;;3.70;99.90;;;;;;5072204;28;20221;-87
2021/12/08 11:00:07;;;;;;;38.20;21.05;;;3.70;99.90;;;;;;5072028;28;20217;-89
2021/12/08 11:02:46;;;;;;;40.80;21.35;;;3.80;99.90;;;;;;5072079;28;20181;-87
2021/12/08 11:05:47;;;;;;;42.67;21.85;;;3.70;99.90;;;;;;5071970;28;20301;-87
2021/12/08 11:08:17;;;;;;;34.33;19.67;;;3.70;99.90;;;;;;5070509;28;20181;-86
2021/12/08 11:10:49;;;;;;;38.90;21.45;;;3.70;99.90;;;;;;5071744;28;20223;-87
2021/12/08 11:13:20;;;;;;;37.25;20.70;;;3.60;99.90;;;;;;5071851;28;20233;-87
2021/12/08 11:15:48;;;;;;;40.83;21.42;;;3.60;99.90;;;;;;5071736;28;20296;-87
2021/12/08 11:18:18;;;;;;;48.83;21.77;;;3.60;99.90;;;;;;5072031;28;20595;-86
2021/12/08 11:20:48;;;;;;;42.17;22.00;;;3.50;99.90;;;;;;5072126;28;20194;-87
2021/12/08 11:23:28;;;;;;;40.13;21.70;;;3.50;99.90;;;;;;5072043;28;20189;-87
2021/12/08 11:25:57;;;;;;;37.60;18.55;;;3.40;99.90;;;;;;5072172;28;20197;-87
2021/12/08 11:28:29;;;;;;;37.28;19.52;;;3.30;99.90;;;;;;5069948;28;20645;-87
2021/12/08 11:31:04;;;;;;;39.65;19.85;;;3.30;99.90;;;;;;5072653;28;20595;-86
2021/12/08 11:33:31;;;;;;;39.97;21.55;;;3.30;99.90;;;;;;5074570;28;20216;-87
2021/12/08 11:36:10;;;;;;;43.15;20.23;;;3.30;99.90;;;;;;5076509;28;20194;-87
2021/12/08 11:38:37;;;;;;;44.67;22.38;;;3.30;99.90;;;;;;5062875;28;20292;-87
2021/12/08 11:41:10;;;;;;;40.80;22.10;;;3.30;99.90;;;;;;5075899;28;20549;-87
2021/12/08 11:43:37;;;;;;;36.35;18.42;;;3.30;99.90;;;;;;5076616;28;20228;-87
2021/12/08 11:46:14;;;;;;;37.10;18.75;;;3.20;99.90;;;;;;5073572;28;20725;-86
2021/12/08 11:49:03;;;;;;;38.47;20.50;;;3.20;99.90;;;;;;5074009;28;20268;-86
2021/12/08 11:51:32;;;;;;;32.33;18.67;;;3.10;99.90;;;;;;5075756;28;20193;-88
2021/12/08 11:54:00;;;;;;;38.92;20.33;;;3.10;99.90;;;;;;5075823;28;20568;-85
2021/12/08 11:56:35;;;;;;;44.20;19.55;;;3.10;99.90;;;;;;5061570;28;20213;-85
2021/12/08 11:59:04;;;;;;;39.47;20.00;;;3.10;99.90;;;;;;5075470;28;20266;-86
2021/12/08 12:01:31;;;;;;;48.38;20.55;;;3.10;99.90;;;;;;5074656;28;20657;-84
2021/12/08 12:03:58;;;;;;;36.67;19.13;;;3.20;99.90;;;;;;5075299;28;20247;-87
2021/12/08 12:06:28;;;;;;;38.92;19.92;;;3.10;99.90;;;;;;5060109;28;20707;-86
2021/12/08 12:08:56;;;;;;;37.95;18.95;;;3.20;99.90;;;;;;5075672;28;20185;-87
2021/12/08 12:11:25;;;;;;;38.33;19.98;;;3.20;99.90;;;;;;5075273;28;20284;-86
2021/12/08 12:13:54;;;;;;;33.60;18.02;;;3.40;99.90;;;;;;5075126;28;20209;-86
2021/12/08 12:16:20;;;;;;;37.08;20.05;;;3.50;99.90;;;;;;5074627;28;20280;-86
2021/12/08 12:18:47;;;;;;;40.05;21.10;;;3.50;99.90;;;;;;5075091;28;20220;-87
2021/12/08 12:21:28;;;;;;;37.78;20.00;;;3.50;99.90;;;;;;5075493;28;20186;-86
2021/12/08 12:24:13;;;;;;;34.28;19.10;;;3.50;99.90;;;;;;5075455;28;20420;-86
2021/12/08 12:26:53;;;;;;;39.15;19.83;;;3.50;99.90;;;;;;5062390;28;20212;-86
2021/12/08 12:29:36;;;;;;;31.02;18.92;;;3.50;99.90;;;;;;5075302;28;20189;-86
2021/12/08 12:32:06;;;;;;;34.75;20.02;;;3.50;99.90;;;;;;5074456;28;20202;-87
2021/12/08 12:34:34;;;;;;;37.17;19.38;;;3.40;99.90;;;;;;5074768;28;20299;-87
2021/12/08 12:37:26;;;;;;;32.35;19.13;;;3.50;99.90;;;;;;5075172;28;20710;-86
2021/12/08 12:39:56;;;;;;;37.08;19.13;;;3.50;99.90;;;;;;5074553;28;20251;-86
2021/12/08 12:42:24;;;;;;;34.45;17.65;;;3.60;99.90;;;;;;5074163;28;20242;-87
2021/12/08 12:45:07;;;;;;;36.92;19.50;;;3.80;99.90;;;;;;5074211;28;20185;-87
2021/12/08 12:47:35;;;;;;;32.13;18.63;;;3.80;99.90;;;;;;5074762;28;20189;-87
2021/12/08 12:50:21;;;;;;;36.40;19.33;;;3.80;99.90;;;;;;5074274;28;20188;-87
2021/12/08 12:52:53;;;;;;;36.20;19.17;;;3.90;99.90;;;;;;5072121;28;20197;-86
2021/12/08 12:55:24;;;;;;;33.80;18.65;;;3.90;99.90;;;;;;5074118;28;20322;-86
2021/12/08 12:58:19;;;;;;;35.72;18.65;;;3.90;99.90;;;;;;5071280;28;20561;-86
2021/12/08 13:00:52;;;;;;;34.47;18.65;;;3.90;99.90;;;;;;5043012;28;20198;-86
2021/12/08 13:03:45;;;;;;;39.65;20.95;;;3.70;99.90;;;;;;5069526;28;20192;-87
2021/12/08 13:06:16;;;;;;;44.17;20.73;;;3.60;99.90;;;;;;5058755;28;20550;-86
2021/12/08 13:08:44;;;;;;;42.75;21.33;;;3.50;99.90;;;;;;5074197;28;20190;-86
2021/12/08 13:11:45;;;;;;;35.13;19.05;;;3.30;99.90;;;;;;5072603;28;20643;-86
2021/12/08 13:14:23;;;;;;;40.90;20.25;;;3.30;99.90;;;;;;5072978;28;20208;-86
2021/12/08 13:17:12;;;;;;;42.60;22.00;;;3.20;99.90;;;;;;5073338;28;20201;-86
2021/12/08 13:19:42;;;;;;;36.20;19.73;;;3.10;99.90;;;;;;5072755;28;20235;-85